CYPR/YPR METAR and TAF weather

Enter ICAO airport designator
Station Type Date Time Source
CYPR METAR 2019/02/21 11:00 UTC NOAA

CYPR 211100Z AUTO 09004KT 9SM CLR M00/M01 A3017 RMK SLP220


Station Type Date Time Source
CYPR Decoded METAR 2019/02/21 11:00 UTC NOAA

Prince Rupert, B. C., Canada (CYPR) 54-18N 130-26W 34M
Feb 21, 2019 - 06:00 AM EST / 2019.02.21 1100 UTC
Wind: from the E (090 degrees) at 5 MPH (4 KT):0
Visibility: 9 mile(s):0
Sky conditions: clear
Temperature: 32 F (0 C)
Windchill: 26 F (-3 C):1
Dew Point: 30 F (-1 C)
Relative Humidity: 92%
Pressure (altimeter): 30.17 in. Hg (1021 hPa)
ob: CYPR 211100Z AUTO 09004KT 9SM CLR M00/M01 A3017 RMK SLP220
cycle: 11

Station Type Date Time Source
CYPR TAF 2019/02/21 07:42 UTC NOAA

TAF CYPR 210638Z 2107/2119 08005KT P6SM FEW015
TEMPO 2107/2115 BKN015
FM211500 09005KT P6SM SCT020 BKN040
TEMPO 2115/2119 4SM -RASN BKN020
RMK FCST BASED ON AUTO OBS. NXT FCST BY 211300Z


Example: see airport list